Time;durP1;ratioP1;P1;durP2;ratioP2;P2;SDS_P1;SDS_P2;PMS_P1;PMS_P2;Temp;Humidity;BMP_temperature;BMP_pressure;BME280_temperature;BME280_humidity;BME280_pressure;Samples;Min_cycle;Max_cycle;Signal;HPM_P1;HPM_P2
2023/07/14 00:01:26;;;;;;;9.10;3.97;;;18.10;70.10;;;;;;5109765;28;20034;-74
2023/07/14 00:03:52;;;;;;;8.30;3.85;;;18.10;70.30;;;;;;5089960;28;20379;-75
2023/07/14 00:06:18;;;;;;;10.65;4.35;;;18.10;70.20;;;;;;5111190;27;20456;-75
2023/07/14 00:08:45;;;;;;;9.93;4.53;;;18.10;70.20;;;;;;5107523;28;20484;-74
2023/07/14 00:11:24;;;;;;;11.82;3.85;;;18.10;70.60;;;;;;5110920;27;20056;-75
2023/07/14 00:13:51;;;;;;;10.30;3.70;;;18.00;70.60;;;;;;5102123;28;20115;-75
2023/07/14 00:16:23;;;;;;;9.27;4.07;;;18.00;70.70;;;;;;5107553;27;20032;-74
2023/07/14 00:18:49;;;;;;;7.88;3.50;;;18.00;70.70;;;;;;5110743;27;20123;-75
2023/07/14 00:21:23;;;;;;;8.70;3.78;;;18.00;70.80;;;;;;5115049;27;20046;-74
2023/07/14 00:23:50;;;;;;;9.68;3.72;;;17.80;71.20;;;;;;5079523;28;20091;-75
2023/07/14 00:26:19;;;;;;;8.07;3.70;;;17.80;71.10;;;;;;5108717;28;20027;-74
2023/07/14 00:28:48;;;;;;;12.05;4.32;;;17.80;71.30;;;;;;5115885;27;20064;-75
2023/07/14 00:31:16;;;;;;;10.50;4.00;;;17.80;71.40;;;;;;5101564;27;20055;-74
2023/07/14 00:33:46;;;;;;;10.38;4.00;;;17.80;71.70;;;;;;5109685;28;20032;-74
2023/07/14 00:36:12;;;;;;;8.20;3.58;;;17.70;72.10;;;;;;5108436;27;20071;-74
2023/07/14 00:38:39;;;;;;;8.13;3.13;;;17.60;72.30;;;;;;5109237;28;20061;-74
2023/07/14 00:41:11;;;;;;;8.55;3.38;;;17.60;72.40;;;;;;5108615;27;20028;-74
2023/07/14 00:43:37;;;;;;;8.23;3.55;;;17.60;72.70;;;;;;5106991;28;20376;-73
2023/07/14 00:46:04;;;;;;;8.48;4.00;;;17.60;72.90;;;;;;5108263;27;20047;-74
2023/07/14 00:48:30;;;;;;;9.50;3.97;;;17.60;73.10;;;;;;5108980;28;20051;-74
2023/07/14 00:50:59;;;;;;;10.65;4.30;;;17.50;73.30;;;;;;5108069;27;20032;-74
2023/07/14 00:53:46;;;;;;;11.43;4.50;;;17.50;73.60;;;;;;5108415;28;20023;-73
2023/07/14 00:56:14;;;;;;;10.93;4.22;;;17.50;73.80;;;;;;5099852;28;20507;-73
2023/07/14 00:58:45;;;;;;;9.93;4.75;;;17.40;73.90;;;;;;5108203;28;20012;-73
2023/07/14 01:01:12;;;;;;;14.85;5.22;;;17.40;74.10;;;;;;5108559;28;20104;-74
2023/07/14 01:03:40;;;;;;;12.00;4.20;;;17.30;74.30;;;;;;5107063;28;20023;-77
2023/07/14 01:06:13;;;;;;;10.43;4.30;;;17.30;74.60;;;;;;5115637;27;20062;-74
2023/07/14 01:08:58;;;;;;;10.40;4.03;;;17.30;74.70;;;;;;5103221;28;20566;-74
2023/07/14 01:11:31;;;;;;;10.25;4.28;;;17.20;74.90;;;;;;5106055;27;20483;-74
2023/07/14 01:13:59;;;;;;;12.52;5.10;;;17.20;75.10;;;;;;5108401;28;20023;-74
2023/07/14 01:16:27;;;;;;;10.57;4.68;;;17.20;75.30;;;;;;5103411;27;20051;-73
2023/07/14 01:18:53;;;;;;;13.95;5.03;;;17.20;75.40;;;;;;5112962;27;20035;-74
2023/07/14 01:21:21;;;;;;;12.00;5.13;;;17.10;75.60;;;;;;5107935;28;20023;-73
2023/07/14 01:24:18;;;;;;;12.48;5.13;;;17.10;75.80;;;;;;5107145;28;20016;-75
2023/07/14 01:26:57;;;;;;;11.75;4.95;;;17.10;75.90;;;;;;5106210;28;20032;-74
2023/07/14 01:29:23;;;;;;;13.73;4.80;;;17.10;76.00;;;;;;5108569;28;20034;-74
2023/07/14 01:31:49;;;;;;;12.00;5.55;;;17.00;76.00;;;;;;5101808;27;20097;-73
2023/07/14 01:34:15;;;;;;;9.30;4.25;;;17.00;75.90;;;;;;5105416;28;20023;-74
2023/07/14 01:36:43;;;;;;;12.95;4.80;;;17.00;76.00;;;;;;5115544;27;20035;-74
2023/07/14 01:39:09;;;;;;;14.00;4.53;;;17.00;76.10;;;;;;5108646;28;20030;-74
2023/07/14 01:41:36;;;;;;;12.95;5.22;;;17.00;76.00;;;;;;5116401;27;20050;-74
2023/07/14 01:44:05;;;;;;;12.48;5.30;;;17.00;75.70;;;;;;5108492;28;20036;-76
2023/07/14 01:46:31;;;;;;;13.32;4.63;;;17.00;75.70;;;;;;5080597;28;20028;-74
2023/07/14 01:48:59;;;;;;;11.38;5.05;;;17.00;75.90;;;;;;5106683;28;20035;-74
2023/07/14 01:51:31;;;;;;;11.77;5.07;;;17.00;75.80;;;;;;5108034;27;20040;-74
2023/07/14 01:54:21;;;;;;;12.50;5.20;;;16.90;76.10;;;;;;5106946;28;20023;-74
2023/07/14 01:56:47;;;;;;;11.88;5.18;;;16.90;76.10;;;;;;5107215;28;20063;-74
2023/07/14 01:59:20;;;;;;;12.70;4.78;;;16.90;76.20;;;;;;5106002;28;20012;-74
2023/07/14 02:01:49;;;;;;;9.40;4.55;;;16.80;76.10;;;;;;5106860;28;20055;-74
2023/07/14 02:04:22;;;;;;;8.98;4.93;;;16.90;76.20;;;;;;5107214;28;20061;-74
2023/07/14 02:06:48;;;;;;;14.30;5.07;;;16.80;76.40;;;;;;5113275;27;20038;-74
2023/07/14 02:09:21;;;;;;;11.80;5.13;;;16.90;76.40;;;;;;5117466;27;20020;-77
2023/07/14 02:11:55;;;;;;;12.80;5.55;;;16.80;76.60;;;;;;5110054;27;20027;-74
2023/07/14 02:14:23;;;;;;;13.07;5.30;;;16.80;76.40;;;;;;5110748;27;20385;-75
2023/07/14 02:16:51;;;;;;;13.20;5.97;;;16.90;76.40;;;;;;5107335;27;20040;-75
2023/07/14 02:19:24;;;;;;;9.10;4.80;;;16.80;76.60;;;;;;5109584;27;20019;-74
2023/07/14 02:21:51;;;;;;;10.65;5.55;;;16.80;76.70;;;;;;5106953;27;20035;-74
2023/07/14 02:24:22;;;;;;;13.32;5.60;;;16.80;76.70;;;;;;5107499;27;20020;-73
2023/07/14 02:26:55;;;;;;;11.38;5.10;;;16.70;76.90;;;;;;5109508;27;20495;-73
2023/07/14 02:29:21;;;;;;;10.40;5.65;;;16.60;77.00;;;;;;5107226;28;20027;-74
2023/07/14 02:32:27;;;;;;;12.23;5.35;;;16.60;77.10;;;;;;5087347;28;20135;-74
2023/07/14 02:35:01;;;;;;;10.82;5.20;;;16.60;77.10;;;;;;5094229;28;20075;-74
2023/07/14 02:38:05;;;;;;;14.07;5.45;;;16.60;77.30;;;;;;5106786;28;20108;-74
2023/07/14 02:40:38;;;;;;;14.82;5.60;;;16.60;77.30;;;;;;5100606;27;20059;-75
2023/07/14 02:43:10;;;;;;;10.55;5.22;;;16.60;77.40;;;;;;5093732;27;20472;-73
2023/07/14 02:45:42;;;;;;;10.02;5.00;;;16.50;77.60;;;;;;5120380;27;20071;-74
2023/07/14 02:48:12;;;;;;;13.13;5.68;;;16.50;77.80;;;;;;5095524;28;20027;-76
2023/07/14 02:50:38;;;;;;;13.02;5.35;;;16.50;77.90;;;;;;5100011;27;21299;-76
2023/07/14 02:53:03;;;;;;;12.00;5.10;;;16.50;77.90;;;;;;5107386;28;20020;-74
2023/07/14 02:55:29;;;;;;;12.18;5.32;;;16.40;78.20;;;;;;5104907;28;20082;-74
2023/07/14 02:57:55;;;;;;;11.70;5.18;;;16.40;78.30;;;;;;5100971;28;20444;-76
2023/07/14 03:00:20;;;;;;;14.10;5.72;;;16.40;78.40;;;;;;5112869;27;20080;-74
2023/07/14 03:02:46;;;;;;;10.13;5.00;;;16.30;78.50;;;;;;5106807;28;20039;-75
2023/07/14 03:05:12;;;;;;;12.13;5.20;;;16.40;78.50;;;;;;5094547;27;20027;-74
2023/07/14 03:07:38;;;;;;;11.98;5.00;;;16.40;78.60;;;;;;5106299;28;20091;-74
2023/07/14 03:10:05;;;;;;;11.85;4.65;;;16.40;78.70;;;;;;5105418;28;20015;-74
2023/07/14 03:12:31;;;;;;;10.98;4.78;;;16.40;78.70;;;;;;5106270;28;20027;-75
2023/07/14 03:14:56;;;;;;;16.05;5.53;;;16.40;78.90;;;;;;5102709;27;20023;-74
2023/07/14 03:17:22;;;;;;;14.77;5.32;;;16.40;78.90;;;;;;5117424;27;20371;-73
2023/07/14 03:19:48;;;;;;;12.27;4.53;;;16.40;78.80;;;;;;5106413;28;20051;-74
2023/07/14 03:22:13;;;;;;;10.70;4.63;;;16.40;78.80;;;;;;5105709;27;20118;-74
2023/07/14 03:24:39;;;;;;;16.35;5.03;;;16.50;79.00;;;;;;5105378;28;20066;-76
2023/07/14 03:27:05;;;;;;;13.00;4.80;;;16.50;78.80;;;;;;5105186;28;20524;-74
2023/07/14 03:29:30;;;;;;;10.38;4.53;;;16.50;78.90;;;;;;5106329;28;20023;-74
2023/07/14 03:31:56;;;;;;;12.95;4.85;;;16.40;78.90;;;;;;5084333;28;20043;-74
2023/07/14 03:34:22;;;;;;;11.63;4.90;;;16.40;79.00;;;;;;5106357;28;20061;-74
2023/07/14 03:36:49;;;;;;;9.90;4.68;;;16.40;79.20;;;;;;5105442;27;20130;-74
2023/07/14 03:39:19;;;;;;;12.90;5.22;;;16.40;79.30;;;;;;5114714;28;20031;-74
2023/07/14 03:41:45;;;;;;;11.70;5.30;;;16.30;79.60;;;;;;5105731;27;20036;-74
2023/07/14 03:44:10;;;;;;;12.00;5.40;;;16.30;79.40;;;;;;5106399;28;20036;-74
2023/07/14 03:46:36;;;;;;;11.35;4.95;;;16.30;79.60;;;;;;5105453;27;20035;-74
2023/07/14 03:49:03;;;;;;;15.52;5.20;;;16.30;79.70;;;;;;5086937;28;20031;-74
2023/07/14 03:51:30;;;;;;;15.30;5.68;;;16.40;79.70;;;;;;5115718;27;20039;-75
2023/07/14 03:53:56;;;;;;;14.73;5.25;;;16.40;79.60;;;;;;5106317;28;20069;-74
2023/07/14 03:56:21;;;;;;;14.05;5.55;;;16.30;79.70;;;;;;5105138;28;20040;-74
2023/07/14 03:58:47;;;;;;;13.52;5.30;;;16.30;79.70;;;;;;5105797;28;20020;-74
2023/07/14 04:01:14;;;;;;;17.63;5.63;;;16.30;79.80;;;;;;5103969;28;20031;-73
2023/07/14 04:03:40;;;;;;;12.10;5.05;;;16.30;79.80;;;;;;5109628;27;20465;-74
2023/07/14 04:06:06;;;;;;;11.93;5.45;;;16.30;79.80;;;;;;5104655;27;20329;-73
2023/07/14 04:08:39;;;;;;;12.23;5.50;;;16.30;80.00;;;;;;5087753;28;20024;-73
2023/07/14 04:11:05;;;;;;;10.30;4.82;;;16.30;79.90;;;;;;5110134;27;20016;-73
2023/07/14 04:13:32;;;;;;;14.55;5.78;;;16.40;79.80;;;;;;5116944;28;20027;-73
2023/07/14 04:15:58;;;;;;;11.32;5.47;;;16.40;79.70;;;;;;5102086;28;20047;-73
2023/07/14 04:18:24;;;;;;;16.40;5.80;;;16.40;79.80;;;;;;5105533;28;20020;-73
2023/07/14 04:20:50;;;;;;;14.25;5.28;;;16.50;79.60;;;;;;5101288;28;20173;-73
2023/07/14 04:23:17;;;;;;;13.90;5.22;;;16.50;79.60;;;;;;5105344;28;20487;-74
2023/07/14 04:25:43;;;;;;;14.20;5.55;;;16.50;79.60;;;;;;5104927;27;20024;-73
2023/07/14 04:28:09;;;;;;;13.05;5.35;;;16.50;79.30;;;;;;5104512;28;20556;-75
2023/07/14 04:30:34;;;;;;;16.00;5.95;;;16.60;79.30;;;;;;5104959;27;20142;-73
2023/07/14 04:33:00;;;;;;;12.77;5.78;;;16.60;79.20;;;;;;5106105;28;20031;-73
2023/07/14 04:35:26;;;;;;;15.82;6.72;;;16.60;79.30;;;;;;5109100;27;20059;-74
2023/07/14 04:37:52;;;;;;;14.07;5.90;;;16.60;79.10;;;;;;5108539;28;20058;-73
2023/07/14 04:40:18;;;;;;;13.02;5.18;;;16.60;79.30;;;;;;5108628;27;20035;-73
2023/07/14 04:42:43;;;;;;;13.98;5.43;;;16.70;79.20;;;;;;5108959;28;20047;-73
2023/07/14 04:45:11;;;;;;;12.88;5.75;;;16.80;78.70;;;;;;5107304;27;20051;-74
2023/07/14 04:47:36;;;;;;;12.48;5.93;;;16.90;78.60;;;;;;5108311;27;20043;-74
2023/07/14 04:50:02;;;;;;;14.13;5.57;;;17.00;78.40;;;;;;5107982;27;20059;-74
2023/07/14 04:52:29;;;;;;;13.38;5.78;;;17.00;77.90;;;;;;5103909;28;20031;-74
2023/07/14 04:54:55;;;;;;;11.77;5.10;;;17.20;77.70;;;;;;5108204;27;20463;-74
2023/07/14 04:57:20;;;;;;;15.13;5.82;;;17.20;77.10;;;;;;5108333;28;20106;-74
2023/07/14 04:59:46;;;;;;;14.27;5.97;;;17.20;77.20;;;;;;5108732;28;20016;-74
2023/07/14 05:02:12;;;;;;;17.60;5.60;;;17.20;77.20;;;;;;5107871;28;21378;-74
2023/07/14 05:04:41;;;;;;;11.95;5.30;;;17.30;77.10;;;;;;5108730;27;20051;-74
2023/07/14 05:07:07;;;;;;;14.07;5.45;;;17.30;76.90;;;;;;5107731;27;20447;-74
2023/07/14 05:09:34;;;;;;;12.13;5.13;;;17.40;76.90;;;;;;5108998;28;20073;-74
2023/07/14 05:12:00;;;;;;;12.60;6.03;;;17.50;76.40;;;;;;5108056;27;20023;-74
2023/07/14 05:14:28;;;;;;;11.07;5.70;;;17.50;76.80;;;;;;5108499;28;20027;-74
2023/07/14 05:16:54;;;;;;;10.73;5.38;;;17.40;76.70;;;;;;5108377;27;20035;-75
2023/07/14 05:19:20;;;;;;;12.25;5.05;;;17.40;76.80;;;;;;5109236;28;20027;-74
2023/07/14 05:21:46;;;;;;;14.30;6.22;;;17.40;76.90;;;;;;5107648;27;20467;-74
2023/07/14 05:24:12;;;;;;;14.45;5.43;;;17.40;77.00;;;;;;5107857;27;20020;-75
2023/07/14 05:26:38;;;;;;;13.52;5.78;;;17.30;77.00;;;;;;5114580;27;20102;-75
2023/07/14 05:29:05;;;;;;;15.32;6.10;;;17.30;77.10;;;;;;5110088;27;20047;-75
2023/07/14 05:31:32;;;;;;;15.90;5.60;;;17.30;77.30;;;;;;5107806;27;20160;-75
2023/07/14 05:33:58;;;;;;;17.80;6.25;;;17.30;77.40;;;;;;5107284;28;20023;-75
2023/07/14 05:36:25;;;;;;;19.83;6.15;;;17.20;77.40;;;;;;5108224;27;20027;-74
2023/07/14 05:38:50;;;;;;;17.88;6.57;;;17.10;77.50;;;;;;5090577;28;20088;-75
2023/07/14 05:41:16;;;;;;;12.20;5.63;;;17.10;77.70;;;;;;5107800;27;20024;-74
2023/07/14 05:43:42;;;;;;;13.48;5.40;;;17.30;77.70;;;;;;5106798;28;20028;-75
2023/07/14 05:46:07;;;;;;;11.95;5.85;;;17.40;77.60;;;;;;5107318;28;20085;-74
2023/07/14 05:48:33;;;;;;;13.40;6.00;;;17.40;77.20;;;;;;5109088;27;20445;-74
2023/07/14 05:50:59;;;;;;;17.20;5.80;;;17.40;77.20;;;;;;5119001;27;20140;-75
2023/07/14 05:53:25;;;;;;;12.30;6.47;;;17.40;77.10;;;;;;5110041;27;20468;-74
2023/07/14 05:55:50;;;;;;;15.00;5.85;;;17.40;77.00;;;;;;5107210;28;20046;-75
2023/07/14 05:58:16;;;;;;;12.77;5.43;;;17.40;76.80;;;;;;5107613;28;20536;-75
2023/07/14 06:00:42;;;;;;;12.32;4.82;;;17.50;76.60;;;;;;5106369;27;20462;-75
2023/07/14 06:03:13;;;;;;;15.43;5.70;;;17.60;76.70;;;;;;5107446;28;20478;-75
2023/07/14 06:05:39;;;;;;;11.32;5.20;;;17.60;76.20;;;;;;5106913;27;20032;-75
2023/07/14 06:08:05;;;;;;;14.13;5.30;;;17.80;76.20;;;;;;5107590;28;20026;-74
2023/07/14 06:10:32;;;;;;;15.38;6.15;;;17.80;76.00;;;;;;5106985;27;20028;-74
2023/07/14 06:12:58;;;;;;;11.10;5.13;;;17.80;75.80;;;;;;5106541;28;20427;-75
2023/07/14 06:15:23;;;;;;;12.30;5.53;;;18.00;75.30;;;;;;5111178;27;20092;-75
2023/07/14 06:17:49;;;;;;;14.10;5.88;;;18.10;75.20;;;;;;5107470;27;20056;-75
2023/07/14 06:20:15;;;;;;;16.13;6.63;;;18.10;74.50;;;;;;5106313;27;20387;-74
2023/07/14 06:22:41;;;;;;;11.70;5.78;;;18.20;74.50;;;;;;5106294;28;20362;-74
2023/07/14 06:25:07;;;;;;;15.45;6.00;;;18.30;74.30;;;;;;5106864;28;20023;-74
2023/07/14 06:27:33;;;;;;;15.88;6.00;;;18.40;73.80;;;;;;5080071;28;20024;-75
2023/07/14 06:30:00;;;;;;;15.15;6.10;;;18.50;73.80;;;;;;5096951;27;20101;-75
2023/07/14 06:32:25;;;;;;;18.60;5.28;;;18.50;73.20;;;;;;5107560;28;20024;-75
2023/07/14 06:34:51;;;;;;;13.35;5.13;;;18.50;73.20;;;;;;5088624;28;20085;-75
2023/07/14 06:37:17;;;;;;;14.98;5.20;;;18.70;72.80;;;;;;5106490;27;20064;-74
2023/07/14 06:39:43;;;;;;;16.67;5.22;;;18.70;71.80;;;;;;5106930;28;20087;-74
2023/07/14 06:42:09;;;;;;;13.55;4.53;;;18.90;71.70;;;;;;5087848;28;20031;-74
2023/07/14 06:44:35;;;;;;;10.55;5.20;;;19.00;71.40;;;;;;5106470;28;20161;-74
2023/07/14 06:47:01;;;;;;;14.45;5.07;;;19.40;70.50;;;;;;5105459;28;20031;-74
2023/07/14 06:49:26;;;;;;;10.57;4.70;;;19.50;69.50;;;;;;5107365;28;20034;-74
2023/07/14 06:51:52;;;;;;;15.63;5.25;;;19.60;68.80;;;;;;5117781;27;20074;-75
2023/07/14 06:54:18;;;;;;;14.40;4.60;;;19.60;68.80;;;;;;5106648;28;20058;-74
2023/07/14 06:56:44;;;;;;;10.05;4.38;;;19.70;67.70;;;;;;5104667;27;20036;-74
2023/07/14 06:59:10;;;;;;;14.10;5.35;;;20.10;67.40;;;;;;5106857;28;20019;-74
2023/07/14 07:01:35;;;;;;;8.25;3.75;;;20.50;65.70;;;;;;5105951;28;20065;-75
2023/07/14 07:04:01;;;;;;;10.70;3.83;;;20.60;64.60;;;;;;5088469;28;20027;-74
2023/07/14 07:06:27;;;;;;;9.27;4.00;;;20.80;64.00;;;;;;5105373;28;21373;-74
2023/07/14 07:08:53;;;;;;;10.18;3.80;;;20.90;63.00;;;;;;5106876;28;20024;-74
2023/07/14 07:11:18;;;;;;;11.52;3.45;;;21.00;62.40;;;;;;5105792;27;20068;-75
2023/07/14 07:13:44;;;;;;;11.02;3.85;;;21.00;60.60;;;;;;5106135;28;20020;-75
2023/07/14 07:16:10;;;;;;;8.52;3.53;;;21.10;60.90;;;;;;5116575;27;20530;-75
2023/07/14 07:18:35;;;;;;;8.80;3.65;;;21.10;60.60;;;;;;5110663;27;20028;-75
2023/07/14 07:21:02;;;;;;;9.02;3.88;;;21.10;60.10;;;;;;5106264;27;20048;-75
2023/07/14 07:23:27;;;;;;;10.48;4.53;;;21.20;60.20;;;;;;5106119;28;20020;-75
2023/07/14 07:25:55;;;;;;;13.38;3.95;;;21.40;60.00;;;;;;5086911;28;20038;-75
2023/07/14 07:28:22;;;;;;;11.15;4.35;;;21.60;59.50;;;;;;5105255;28;20027;-75
2023/07/14 07:30:48;;;;;;;11.38;3.95;;;21.70;59.50;;;;;;5105544;28;20035;-76
2023/07/14 07:33:14;;;;;;;10.90;4.90;;;21.80;59.30;;;;;;5105913;28;20027;-76
2023/07/14 07:35:41;;;;;;;11.02;3.92;;;21.90;59.00;;;;;;5105322;28;20887;-76
2023/07/14 07:38:11;;;;;;;12.15;3.63;;;21.90;58.00;;;;;;5106103;28;20020;-76
2023/07/14 07:40:38;;;;;;;11.88;3.90;;;21.90;57.50;;;;;;5105300;28;20127;-76
2023/07/14 07:43:04;;;;;;;8.32;3.60;;;21.90;57.10;;;;;;5105617;28;20461;-75
2023/07/14 07:45:29;;;;;;;11.23;3.92;;;21.90;56.10;;;;;;5105486;28;20043;-76
2023/07/14 07:47:56;;;;;;;10.65;3.58;;;22.00;56.40;;;;;;5105805;28;20039;-76
2023/07/14 07:50:22;;;;;;;9.05;3.80;;;22.20;55.80;;;;;;5105307;27;20622;-75
2023/07/14 07:52:47;;;;;;;9.07;3.80;;;22.10;55.00;;;;;;5087744;28;20123;-74
2023/07/14 07:55:13;;;;;;;12.68;4.28;;;22.20;55.20;;;;;;5086522;28;20547;-74
2023/07/14 07:57:40;;;;;;;8.18;3.20;;;22.30;55.70;;;;;;5105936;28;20491;-75
2023/07/14 08:00:07;;;;;;;9.95;3.30;;;22.20;54.30;;;;;;5105160;27;20019;-75
2023/07/14 08:02:35;;;;;;;7.60;3.33;;;22.30;53.80;;;;;;5101014;28;20527;-74
2023/07/14 08:05:01;;;;;;;10.52;3.20;;;22.10;53.90;;;;;;5105301;27;20023;-74
2023/07/14 08:07:27;;;;;;;10.35;3.30;;;22.20;54.70;;;;;;5106404;28;20016;-74
2023/07/14 08:09:53;;;;;;;9.60;3.67;;;22.20;54.70;;;;;;5109450;28;20019;-74
2023/07/14 08:12:19;;;;;;;10.13;3.92;;;22.30;55.40;;;;;;5090033;28;20031;-74
2023/07/14 08:14:55;;;;;;;8.75;3.65;;;22.30;56.30;;;;;;5109249;28;20639;-74
2023/07/14 08:17:26;;;;;;;11.32;3.45;;;22.50;56.20;;;;;;5121223;27;20487;-75
2023/07/14 08:19:52;;;;;;;15.52;4.28;;;22.60;56.20;;;;;;5109551;28;20028;-74
2023/07/14 08:22:20;;;;;;;10.13;3.70;;;22.60;56.90;;;;;;5108959;28;20020;-75
2023/07/14 08:24:45;;;;;;;10.82;3.80;;;22.60;56.50;;;;;;5108987;28;20016;-75
2023/07/14 08:27:11;;;;;;;11.60;4.10;;;22.40;56.90;;;;;;5108463;27;20445;-74
2023/07/14 08:29:37;;;;;;;7.28;3.53;;;22.40;57.10;;;;;;5109943;28;20031;-75
2023/07/14 08:32:02;;;;;;;10.40;3.88;;;22.50;57.80;;;;;;5108418;27;20421;-74
2023/07/14 08:34:29;;;;;;;10.35;3.78;;;22.50;57.20;;;;;;5109282;27;20080;-74
2023/07/14 08:36:55;;;;;;;10.40;4.03;;;22.60;57.30;;;;;;5089524;28;20040;-74
2023/07/14 08:39:21;;;;;;;7.60;3.22;;;22.40;57.90;;;;;;5109161;27;20024;-74
2023/07/14 08:41:53;;;;;;;9.32;3.53;;;22.50;58.50;;;;;;5108462;28;20032;-74
2023/07/14 08:44:31;;;;;;;11.40;4.13;;;22.60;58.20;;;;;;5109386;28;20115;-75
2023/07/14 08:47:06;;;;;;;10.70;3.55;;;22.50;58.80;;;;;;5089430;28;20072;-75
2023/07/14 08:50:03;;;;;;;8.75;3.88;;;22.50;58.60;;;;;;5091713;28;20023;-75
2023/07/14 08:52:37;;;;;;;7.43;3.58;;;22.40;58.50;;;;;;5103542;28;20047;-75
2023/07/14 08:55:25;;;;;;;10.07;4.00;;;22.10;59.20;;;;;;5108134;28;20056;-75
2023/07/14 08:58:02;;;;;;;9.32;3.70;;;22.00;60.10;;;;;;5107912;27;20058;-75
2023/07/14 09:00:49;;;;;;;10.60;3.72;;;22.10;60.00;;;;;;5103099;28;20059;-74
2023/07/14 09:03:42;;;;;;;10.10;4.07;;;22.10;59.60;;;;;;5109145;28;20026;-74
2023/07/14 09:06:17;;;;;;;8.80;3.83;;;22.30;59.90;;;;;;5094274;28;20043;-74
2023/07/14 09:08:44;;;;;;;9.40;3.65;;;22.70;59.00;;;;;;5107922;27;20057;-74
2023/07/14 09:11:34;;;;;;;10.70;3.88;;;23.00;58.70;;;;;;5107816;28;20047;-75
2023/07/14 09:14:06;;;;;;;8.85;3.45;;;23.20;57.00;;;;;;5114912;27;20084;-75
2023/07/14 09:16:37;;;;;;;7.20;3.50;;;23.10;56.70;;;;;;5099688;27;20066;-75
2023/07/14 09:19:23;;;;;;;9.35;3.38;;;23.30;55.70;;;;;;5107883;28;20191;-74
2023/07/14 09:21:57;;;;;;;7.95;3.92;;;23.50;55.80;;;;;;5107572;27;20027;-74
2023/07/14 09:24:39;;;;;;;11.05;3.83;;;23.50;55.40;;;;;;5109500;28;20133;-74
2023/07/14 09:27:13;;;;;;;9.38;3.13;;;23.70;56.10;;;;;;5107698;27;20024;-75
2023/07/14 09:29:42;;;;;;;6.32;2.60;;;23.70;54.90;;;;;;5086275;28;20015;-75
2023/07/14 09:32:24;;;;;;;7.53;3.22;;;23.80;53.80;;;;;;5091419;28;20046;-75
2023/07/14 09:35:05;;;;;;;6.78;3.15;;;23.90;53.80;;;;;;5104899;28;20031;-75
2023/07/14 09:37:39;;;;;;;9.30;2.78;;;24.20;53.80;;;;;;5107654;28;20032;-75
2023/07/14 09:40:28;;;;;;;7.88;3.03;;;24.40;52.60;;;;;;5089547;27;20016;-75
2023/07/14 09:42:56;;;;;;;7.00;2.92;;;24.30;52.80;;;;;;5104481;28;20051;-75
2023/07/14 09:45:34;;;;;;;10.27;2.80;;;24.60;52.80;;;;;;5090468;27;20384;-75
2023/07/14 09:48:16;;;;;;;6.18;3.15;;;24.70;51.80;;;;;;5112917;27;20019;-75
2023/07/14 09:51:02;;;;;;;9.48;3.28;;;24.70;51.80;;;;;;5111835;27;20031;-75
2023/07/14 09:53:31;;;;;;;9.00;3.10;;;24.60;51.40;;;;;;5107338;27;21191;-75
2023/07/14 09:56:01;;;;;;;9.95;3.58;;;24.50;51.70;;;;;;5106707;28;20492;-75
2023/07/14 09:58:30;;;;;;;6.22;2.97;;;24.60;51.70;;;;;;5107612;28;20019;-75
2023/07/14 10:00:59;;;;;;;6.88;2.85;;;24.80;50.70;;;;;;5107973;27;20055;-75
2023/07/14 10:03:30;;;;;;;9.25;3.13;;;25.00;51.20;;;;;;5106564;28;20033;-75
2023/07/14 10:06:16;;;;;;;8.95;2.95;;;25.10;50.50;;;;;;5107057;28;20073;-76
2023/07/14 10:08:50;;;;;;;9.90;3.35;;;25.20;50.20;;;;;;5106865;28;20023;-75
2023/07/14 10:11:24;;;;;;;7.82;2.70;;;25.00;50.60;;;;;;5107329;27;20085;-75
2023/07/14 10:13:59;;;;;;;6.93;3.25;;;25.30;50.60;;;;;;5107450;28;20073;-74
2023/07/14 10:16:27;;;;;;;7.00;3.30;;;25.60;50.00;;;;;;5109166;27;20130;-75
2023/07/14 10:18:56;;;;;;;9.93;3.55;;;25.90;48.40;;;;;;5107378;28;20405;-74
2023/07/14 10:21:27;;;;;;;8.77;3.20;;;25.90;47.80;;;;;;5111915;27;20069;-75
2023/07/14 10:24:00;;;;;;;7.72;3.28;;;25.60;49.20;;;;;;5088713;28;20028;-74
2023/07/14 10:26:31;;;;;;;8.10;2.97;;;25.90;49.80;;;;;;5105988;28;20038;-74
2023/07/14 10:28:57;;;;;;;10.85;3.17;;;25.90;48.60;;;;;;5099697;28;20023;-75
2023/07/14 10:31:28;;;;;;;7.93;3.25;;;25.90;49.60;;;;;;5110976;27;20051;-75
2023/07/14 10:33:53;;;;;;;9.02;3.20;;;25.80;49.10;;;;;;5099989;28;20020;-76
2023/07/14 10:36:25;;;;;;;7.68;3.08;;;25.60;49.60;;;;;;5108854;27;20032;-75
2023/07/14 10:39:00;;;;;;;8.57;3.28;;;25.30;50.30;;;;;;5106500;28;20103;-76
2023/07/14 10:41:26;;;;;;;5.80;2.85;;;25.50;49.50;;;;;;5103666;28;20023;-75
2023/07/14 10:44:15;;;;;;;6.57;3.20;;;25.60;49.50;;;;;;5106727;28;20379;-74
2023/07/14 10:46:53;;;;;;;9.48;3.22;;;25.60;49.80;;;;;;5102108;27;20047;-74
2023/07/14 10:49:25;;;;;;;9.32;3.05;;;25.60;49.70;;;;;;5103316;28;20015;-74
2023/07/14 10:52:03;;;;;;;6.78;2.70;;;25.60;49.20;;;;;;5116630;27;20036;-74
2023/07/14 10:54:40;;;;;;;6.63;2.95;;;25.70;49.50;;;;;;5099667;27;20171;-74
2023/07/14 10:57:37;;;;;;;6.63;3.38;;;26.00;49.20;;;;;;5080967;28;20403;-75
2023/07/14 11:00:32;;;;;;;7.75;3.38;;;26.20;48.40;;;;;;5105848;28;20455;-74
2023/07/14 11:03:17;;;;;;;9.10;3.05;;;26.40;47.70;;;;;;5095248;28;20479;-74
2023/07/14 11:05:52;;;;;;;9.63;3.40;;;26.30;48.70;;;;;;5105840;28;20607;-74
2023/07/14 11:08:18;;;;;;;7.03;2.92;;;26.60;47.60;;;;;;5105668;28;20019;-76
2023/07/14 11:11:02;;;;;;;7.47;3.20;;;26.70;47.60;;;;;;5120844;27;20047;-74
2023/07/14 11:13:40;;;;;;;7.97;2.97;;;26.70;47.10;;;;;;5079317;28;20482;-74
2023/07/14 11:16:15;;;;;;;6.78;2.90;;;27.20;46.10;;;;;;5106054;27;20066;-74
2023/07/14 11:18:40;;;;;;;6.10;2.90;;;27.50;45.70;;;;;;5105896;28;20023;-74
2023/07/14 11:21:51;;;;;;;7.50;3.17;;;26.90;45.90;;;;;;5105387;27;20043;-74
2023/07/14 11:24:27;;;;;;;4.80;2.50;;;27.10;45.50;;;;;;5084661;28;20067;-74
2023/07/14 11:27:35;;;;;;;7.28;2.70;;;27.30;44.80;;;;;;5104588;28;20709;-74
2023/07/14 11:30:09;;;;;;;10.18;3.10;;;27.10;44.80;;;;;;5004653;28;20089;-74
2023/07/14 11:32:53;;;;;;;7.03;3.10;;;27.10;45.50;;;;;;5022664;28;20080;-75
2023/07/14 11:35:45;;;;;;;6.30;2.87;;;27.20;44.70;;;;;;5077644;27;20357;-75
2023/07/14 11:38:17;;;;;;;6.97;2.97;;;27.10;45.30;;;;;;5106008;28;20631;-75
2023/07/14 11:40:45;;;;;;;6.05;2.88;;;27.00;46.10;;;;;;5105377;27;20369;-76
2023/07/14 11:43:20;;;;;;;8.13;2.95;;;27.00;46.10;;;;;;5107063;28;20477;-76
2023/07/14 11:45:53;;;;;;;9.52;3.30;;;26.90;45.00;;;;;;5110034;27;20134;-77
2023/07/14 11:48:44;;;;;;;7.13;3.15;;;27.00;45.40;;;;;;5103528;28;20018;-76
2023/07/14 11:51:16;;;;;;;6.47;2.67;;;26.90;45.30;;;;;;5118637;27;20072;-76
2023/07/14 11:54:06;;;;;;;7.35;3.13;;;26.80;44.50;;;;;;5111311;27;20027;-74
2023/07/14 11:56:39;;;;;;;8.45;2.80;;;26.80;44.60;;;;;;5109694;27;20024;-74
2023/07/14 11:59:16;;;;;;;7.03;2.60;;;27.00;44.80;;;;;;5110534;27;20145;-75
2023/07/14 12:01:48;;;;;;;7.18;2.75;;;27.30;44.20;;;;;;5108389;27;20515;-75
2023/07/14 12:04:30;;;;;;;7.90;2.65;;;27.20;44.30;;;;;;5109424;28;20023;-75
2023/07/14 12:07:12;;;;;;;6.60;2.67;;;27.40;43.30;;;;;;5108941;28;20054;-75
2023/07/14 12:10:12;;;;;;;6.57;2.83;;;27.10;43.60;;;;;;5087207;28;20329;-74
2023/07/14 12:12:39;;;;;;;6.93;2.60;;;27.10;43.40;;;;;;5110838;27;20028;-74
2023/07/14 12:15:42;;;;;;;7.10;2.53;;;26.80;43.20;;;;;;5116850;27;20015;-75
2023/07/14 12:18:53;;;;;;;7.00;2.53;;;27.00;43.10;;;;;;5099854;28;20028;-74
2023/07/14 12:21:29;;;;;;;6.40;2.47;;;27.10;43.50;;;;;;5045403;28;20536;-75
2023/07/14 12:24:00;;;;;;;8.00;2.53;;;27.00;45.10;;;;;;5108170;28;20039;-74
2023/07/14 12:26:51;;;;;;;7.03;3.00;;;27.10;44.50;;;;;;5089906;28;20042;-76
2023/07/14 12:29:19;;;;;;;6.85;2.80;;;27.30;43.30;;;;;;5100970;27;20018;-75
2023/07/14 12:31:55;;;;;;;8.95;3.28;;;27.40;43.60;;;;;;5109288;27;20096;-75
2023/07/14 12:34:31;;;;;;;7.32;2.80;;;27.30;42.70;;;;;;5090206;28;20047;-74
2023/07/14 12:37:00;;;;;;;6.93;2.92;;;27.50;42.40;;;;;;5108035;28;20036;-74
2023/07/14 12:39:26;;;;;;;6.50;2.65;;;27.70;42.60;;;;;;5108823;28;20103;-76
2023/07/14 12:41:53;;;;;;;5.85;2.63;;;27.40;42.40;;;;;;5108774;28;20122;-75
2023/07/14 12:44:34;;;;;;;6.38;2.78;;;27.60;41.70;;;;;;5108932;27;20460;-75
2023/07/14 12:47:00;;;;;;;6.53;2.80;;;27.50;41.90;;;;;;5108722;28;20126;-74
2023/07/14 12:49:37;;;;;;;7.22;2.85;;;27.40;41.40;;;;;;5107746;28;20127;-76
2023/07/14 12:52:24;;;;;;;9.10;3.22;;;27.50;42.10;;;;;;5100329;28;20491;-75
2023/07/14 12:54:52;;;;;;;6.25;2.47;;;27.90;42.40;;;;;;5107899;28;20024;-75
2023/07/14 12:57:18;;;;;;;6.07;3.00;;;28.10;41.10;;;;;;5108830;28;20036;-74
2023/07/14 12:59:49;;;;;;;6.68;3.00;;;28.10;40.90;;;;;;5101276;27;20042;-74